createdAt,value
2023-02-11T09:59:40.306Z,47.30
2023-02-11T10:02:38.088Z,47.45
2023-02-11T10:05:20.058Z,46.33
2023-02-11T10:08:17.218Z,48.97
2023-02-11T10:11:01.537Z,51.58
2023-02-11T10:14:07.731Z,49.88
2023-02-11T10:17:00.701Z,51.65
2023-02-11T10:19:54.945Z,51.28
2023-02-11T10:22:30.336Z,52.85
2023-02-11T10:25:00.751Z,47.20
2023-02-11T10:27:35.887Z,51.25
2023-02-11T10:30:35.008Z,48.28
2023-02-11T10:33:14.065Z,47.25
2023-02-11T10:35:42.604Z,47.13
2023-02-11T10:38:11.951Z,46.00
2023-02-11T10:40:38.746Z,50.85
2023-02-11T10:43:10.617Z,52.72
2023-02-11T10:45:50.752Z,53.50
2023-02-11T10:48:49.663Z,49.65
2023-02-11T10:51:23.271Z,49.75
2023-02-11T10:54:00.866Z,46.30
2023-02-11T10:56:28.742Z,48.03
2023-02-11T10:59:01.694Z,48.40
2023-02-11T11:01:50.164Z,45.75
2023-02-11T11:04:45.462Z,49.78
2023-02-11T11:07:30.119Z,50.58
2023-02-11T11:09:59.795Z,58.42
2023-02-11T11:12:26.430Z,52.30
2023-02-11T11:15:16.628Z,52.50
2023-02-11T11:17:43.336Z,52.03
2023-02-11T11:20:35.482Z,52.90
2023-02-11T11:23:13.701Z,49.42
2023-02-11T11:25:44.107Z,53.97
2023-02-11T11:28:24.420Z,52.17
2023-02-11T11:30:54.130Z,49.92
2023-02-11T11:33:26.130Z,54.33
2023-02-11T11:36:11.515Z,52.63
2023-02-11T11:38:48.406Z,50.45
2023-02-11T11:41:24.171Z,52.58
2023-02-11T11:43:56.723Z,49.72
2023-02-11T11:46:41.752Z,53.05
2023-02-11T11:49:22.086Z,55.05
2023-02-11T11:52:10.288Z,46.95
2023-02-11T11:54:37.509Z,48.85
2023-02-11T11:57:14.745Z,49.55
2023-02-11T11:59:44.360Z,50.65
2023-02-11T12:02:42.145Z,52.35
2023-02-11T12:05:26.883Z,50.38
2023-02-11T12:08:33.372Z,51.75
2023-02-11T12:11:28.437Z,45.97
2023-02-11T12:14:19.021Z,48.35
2023-02-11T12:16:54.540Z,48.17
2023-02-11T12:19:45.566Z,49.33
2023-02-11T12:22:44.202Z,47.40
2023-02-11T12:25:23.129Z,47.13
2023-02-11T12:28:26.812Z,43.90
2023-02-11T12:31:23.106Z,43.22
2023-02-11T12:34:00.842Z,47.33
2023-02-11T12:36:30.450Z,48.88
2023-02-11T12:39:27.097Z,45.63
2023-02-11T12:42:35.953Z,48.50
2023-02-11T12:45:22.445Z,49.15
2023-02-11T12:48:05.624Z,42.70
2023-02-11T12:50:55.171Z,47.42
2023-02-11T12:53:53.891Z,43.30
2023-02-11T12:56:40.458Z,45.47
2023-02-11T12:59:15.344Z,47.85
2023-02-11T13:01:47.329Z,45.75
2023-02-11T13:04:23.922Z,46.40
2023-02-11T13:07:02.572Z,43.83
2023-02-11T13:10:13.346Z,42.90
2023-02-11T13:13:03.524Z,47.90
2023-02-11T13:15:31.717Z,45.00
2023-02-11T13:18:30.000Z,43.67
2023-02-11T13:21:17.945Z,46.13
2023-02-11T13:23:57.991Z,44.67
2023-02-11T13:26:45.722Z,38.53
2023-02-11T13:29:26.285Z,43.40
2023-02-11T13:31:54.979Z,47.95
2023-02-11T13:34:26.977Z,43.00
2023-02-11T13:37:02.838Z,43.50
2023-02-11T13:39:29.592Z,41.58
2023-02-11T13:42:06.356Z,47.22
2023-02-11T13:44:34.884Z,40.15
2023-02-11T13:47:05.059Z,44.42
2023-02-11T13:49:41.482Z,44.35
2023-02-11T13:52:32.388Z,42.28
2023-02-11T13:55:22.635Z,40.72
2023-02-11T13:58:12.131Z,40.55
2023-02-11T14:00:38.712Z,39.75
2023-02-11T14:03:32.618Z,47.40
2023-02-11T14:06:27.172Z,37.65
2023-02-11T14:09:09.179Z,41.42
2023-02-11T14:11:46.300Z,40.05
2023-02-11T14:14:31.877Z,41.10
2023-02-11T14:16:58.690Z,42.25
2023-02-11T14:19:43.884Z,43.50
2023-02-11T14:22:10.534Z,45.88
2023-02-11T14:24:37.103Z,48.42
2023-02-11T14:27:25.920Z,42.95
2023-02-11T14:30:10.523Z,44.92
2023-02-11T14:33:08.451Z,41.63
2023-02-11T14:35:40.976Z,42.28
2023-02-11T14:38:26.982Z,44.90
2023-02-11T14:41:18.594Z,44.60
2023-02-11T14:43:53.252Z,45.65
2023-02-11T14:46:22.400Z,44.97
2023-02-11T14:48:52.324Z,44.10
2023-02-11T14:51:27.677Z,44.05
2023-02-11T14:54:02.031Z,45.53
2023-02-11T14:56:31.327Z,44.40
2023-02-11T14:58:58.405Z,47.55
2023-02-11T15:01:41.005Z,45.35
2023-02-11T15:04:25.336Z,44.00
2023-02-11T15:06:55.377Z,41.90
2023-02-11T15:09:34.270Z,44.65
2023-02-11T15:12:01.330Z,44.15
2023-02-11T15:14:37.368Z,44.38
2023-02-11T15:17:07.749Z,42.50
2023-02-11T15:19:38.545Z,45.40
2023-02-11T15:22:27.061Z,42.50
2023-02-11T15:25:01.137Z,45.33
2023-02-11T15:29:54.492Z,42.00
2023-02-11T15:32:34.846Z,43.78
2023-02-11T15:35:01.498Z,47.22
2023-02-11T15:37:30.021Z,44.78
2023-02-11T15:40:13.215Z,47.42
2023-02-11T15:42:52.122Z,47.50
2023-02-11T15:45:31.420Z,49.50
2023-02-11T15:48:24.744Z,46.25
2023-02-11T15:50:55.587Z,45.17
2023-02-11T15:53:33.404Z,48.40
2023-02-11T15:56:16.554Z,45.72
2023-02-11T15:58:45.982Z,42.53
2023-02-11T16:01:14.197Z,42.67
2023-02-11T16:03:44.073Z,44.75
2023-02-11T16:06:17.955Z,44.63
2023-02-11T16:09:01.416Z,41.63
2023-02-11T16:11:55.556Z,42.75
2023-02-11T16:14:29.618Z,42.90
2023-02-11T16:19:34.053Z,43.63
2023-02-11T16:22:10.108Z,42.50
2023-02-11T16:24:38.922Z,37.13
2023-02-11T16:27:18.380Z,42.78
2023-02-11T16:29:55.113Z,37.78
2023-02-11T16:32:26.748Z,38.22
2023-02-11T16:34:55.360Z,39.08
2023-02-11T16:37:21.978Z,44.30
2023-02-11T16:39:55.101Z,39.22
2023-02-11T16:42:21.739Z,50.42
2023-02-11T16:44:48.347Z,39.45
2023-02-11T16:47:26.688Z,39.60
2023-02-11T16:49:54.302Z,36.80
2023-02-11T16:52:21.913Z,36.85
2023-02-11T16:54:48.863Z,35.40
2023-02-11T16:57:16.600Z,39.75
2023-02-11T16:59:46.698Z,36.38
2023-02-11T17:02:23.958Z,36.50
2023-02-11T17:04:52.871Z,38.60
2023-02-11T17:07:31.923Z,36.15
2023-02-11T17:09:59.300Z,36.75
2023-02-11T17:12:28.631Z,35.75
2023-02-11T17:14:55.382Z,36.47
2023-02-11T17:17:25.076Z,36.08
2023-02-11T17:19:52.133Z,39.28
2023-02-11T17:22:22.016Z,36.00
2023-02-11T17:24:48.928Z,36.53
2023-02-11T17:27:15.588Z,36.42
2023-02-11T17:29:42.242Z,41.38
2023-02-11T17:32:08.899Z,37.05
2023-02-11T17:34:35.763Z,38.20
2023-02-11T17:37:08.995Z,36.20
2023-02-11T17:39:37.014Z,36.17
2023-02-11T17:42:04.360Z,37.47
2023-02-11T17:44:30.992Z,40.60
2023-02-11T17:46:58.788Z,43.03
2023-02-11T17:49:25.593Z,38.75
2023-02-11T17:51:52.297Z,36.00
2023-02-11T17:54:22.708Z,37.92
2023-02-11T17:56:51.056Z,37.72
2023-02-11T17:59:17.918Z,36.83
2023-02-11T18:01:44.598Z,38.05
2023-02-11T18:04:15.392Z,37.08
2023-02-11T18:06:42.094Z,35.53
2023-02-11T18:09:12.210Z,39.67
2023-02-11T18:11:40.168Z,39.58
2023-02-11T18:14:08.546Z,42.88
2023-02-11T18:16:39.032Z,41.25
2023-02-11T18:19:07.839Z,38.25
2023-02-11T18:21:35.055Z,39.22
2023-02-11T18:24:06.481Z,34.72
2023-02-11T18:26:37.210Z,38.42
2023-02-11T18:29:06.320Z,33.70
2023-02-11T18:31:35.430Z,34.35
2023-02-11T18:34:05.630Z,36.00
2023-02-11T18:36:38.088Z,34.85
2023-02-11T18:39:05.987Z,33.40
2023-02-11T18:41:32.676Z,32.67
2023-02-11T18:44:02.817Z,34.03
2023-02-11T18:46:29.948Z,35.25
2023-02-11T18:48:56.676Z,37.63
2023-02-11T18:51:23.743Z,33.42
2023-02-11T18:53:50.571Z,31.38
2023-02-11T18:56:23.768Z,30.80
2023-02-11T18:58:51.493Z,29.73
2023-02-11T19:01:29.498Z,31.20
2023-02-11T19:03:58.107Z,32.42
2023-02-11T19:06:27.367Z,33.88
2023-02-11T19:08:59.196Z,32.40
2023-02-11T19:11:45.437Z,30.63
2023-02-11T19:14:14.237Z,31.48
2023-02-11T19:16:42.616Z,32.95
2023-02-11T19:19:09.669Z,31.77
2023-02-11T19:21:36.933Z,30.88
2023-02-11T19:24:07.988Z,31.58
2023-02-11T19:26:35.714Z,32.53
2023-02-11T19:29:02.772Z,33.40
2023-02-11T19:31:32.354Z,32.33
2023-02-11T19:34:00.375Z,32.13
2023-02-11T19:36:29.430Z,45.38
2023-02-11T19:38:56.145Z,32.30
2023-02-11T19:41:23.333Z,35.38
2023-02-11T19:43:53.788Z,33.47
2023-02-11T19:46:24.374Z,34.00
2023-02-11T19:48:51.279Z,33.28
2023-02-11T19:51:18.311Z,32.25
2023-02-11T19:53:47.853Z,33.10
2023-02-11T19:56:20.417Z,35.90
2023-02-11T19:58:47.368Z,33.47
2023-02-11T20:01:19.714Z,34.53
2023-02-11T20:03:50.249Z,34.42
2023-02-11T20:06:28.488Z,33.55
2023-02-11T20:09:02.714Z,32.20
2023-02-11T20:11:31.264Z,32.40
2023-02-11T20:13:58.590Z,32.85
2023-02-11T20:16:46.039Z,33.45
2023-02-11T20:19:20.584Z,30.75
2023-02-11T20:21:48.832Z,30.67
2023-02-11T20:24:19.090Z,33.70
2023-02-11T20:26:48.486Z,32.78
2023-02-11T20:29:17.469Z,31.30
2023-02-11T20:31:44.849Z,30.77
2023-02-11T20:34:14.448Z,31.38
2023-02-11T20:36:41.265Z,30.65
2023-02-11T20:39:08.985Z,32.40
2023-02-11T20:41:40.060Z,33.72
2023-02-11T20:44:08.711Z,34.40
2023-02-11T20:46:40.183Z,30.55
2023-02-11T20:49:09.097Z,31.73
2023-02-11T20:51:37.001Z,32.45
2023-02-11T20:54:04.113Z,31.35
2023-02-11T20:56:32.555Z,33.10
2023-02-11T20:59:01.629Z,32.13
2023-02-11T21:01:34.572Z,30.65
2023-02-11T21:04:06.760Z,30.85
2023-02-11T21:06:36.431Z,33.88
2023-02-11T21:09:05.515Z,29.90
2023-02-11T21:11:32.376Z,34.03
2023-02-11T21:13:59.605Z,34.45
2023-02-11T21:16:26.411Z,32.58
2023-02-11T21:18:55.459Z,30.63
2023-02-11T21:21:23.321Z,33.47
2023-02-11T21:23:50.331Z,29.60
2023-02-11T21:26:17.637Z,29.75
2023-02-11T21:28:45.101Z,30.40
2023-02-11T21:31:37.158Z,30.27
2023-02-11T21:34:10.627Z,31.02
2023-02-11T21:36:37.325Z,30.08
2023-02-11T21:39:04.357Z,31.27
2023-02-11T21:41:31.470Z,30.20
2023-02-11T21:43:58.274Z,31.05
2023-02-11T21:46:25.034Z,30.10
2023-02-11T21:48:54.046Z,31.73
2023-02-11T21:51:23.758Z,31.23
2023-02-11T21:54:01.411Z,31.52
2023-02-11T21:56:34.351Z,30.48
2023-02-11T21:59:03.713Z,31.58
2023-02-11T22:01:35.400Z,34.63
2023-02-11T22:04:02.158Z,30.75
2023-02-11T22:06:31.391Z,32.20
2023-02-11T22:08:59.424Z,30.23
2023-02-11T22:11:26.071Z,31.40
2023-02-11T22:13:56.534Z,29.75
2023-02-11T22:16:23.916Z,31.35
2023-02-11T22:18:51.666Z,32.10
2023-02-11T22:21:20.959Z,31.58
2023-02-11T22:23:48.803Z,33.58
2023-02-11T22:26:21.280Z,30.80
2023-02-11T22:28:48.856Z,30.48
2023-02-11T22:31:19.056Z,33.08
2023-02-11T22:33:45.798Z,32.53
2023-02-11T22:36:33.926Z,33.25
2023-02-11T22:39:06.563Z,34.22
2023-02-11T22:41:33.709Z,33.30
2023-02-11T22:44:00.632Z,32.10
2023-02-11T22:46:27.533Z,33.72
2023-02-11T22:48:57.144Z,33.00
2023-02-11T22:51:31.334Z,33.22
2023-02-11T22:54:00.606Z,32.72
2023-02-11T22:56:28.226Z,32.42
2023-02-11T23:01:29.865Z,31.90
2023-02-11T23:03:56.636Z,32.67
2023-02-11T23:06:26.230Z,32.83
2023-02-11T23:08:53.181Z,31.98
2023-02-11T23:11:23.670Z,33.45
2023-02-11T23:13:52.175Z,32.95
2023-02-11T23:16:22.309Z,42.13
2023-02-11T23:18:49.873Z,32.42
2023-02-11T23:21:26.104Z,31.05
2023-02-11T23:24:05.328Z,31.70
2023-02-11T23:26:32.050Z,32.88
2023-02-11T23:29:00.035Z,33.38
2023-02-11T23:31:35.488Z,40.53
2023-02-11T23:34:07.596Z,34.33
2023-02-11T23:36:34.760Z,33.03
2023-02-11T23:39:01.836Z,33.20
2023-02-11T23:41:31.665Z,32.65
2023-02-11T23:43:58.460Z,31.58
2023-02-11T23:46:31.426Z,33.60
2023-02-11T23:48:58.058Z,32.70
2023-02-11T23:51:24.796Z,34.58
2023-02-11T23:53:56.183Z,32.15
2023-02-11T23:56:27.426Z,34.63
2023-02-11T23:58:57.317Z,33.22
